SWR80 LSZH-CYYZ
Flight info
| Callsign | SWR80 |
|---|---|
| Flight time | N/A |
| Altitude | 34000 |
| Route | VEBIT T10 TORPA DCT REKLA DCT RLP DCT ROTSI DCT KOTUN DCT AMAXA DCT VESAN DCT RATUK DCT SOVAT/N0465F380 L613 SANDY DCT OKSAW DCT TEWXI DCT VATRY DCT TORLU DCT DOGAL/M081F390 NATD NEEKO/N0470F400 N622E TAFFY DCT VILRO DCT SAVEX Q806 TUKIR IMEBA9 |
| Aircraft | A339/H-SADE1E2E3GHIJ3J5M1P2RWXY/LB2D1 |
Departure
| Time | 2026-05-05 08:24 |
|---|---|
| Airport | Zürich Airport (LSZH) |
Arrival
| Time | N/A |
|---|---|
| Airport | Toronto Pearson International Airport (CYYZ) |
| Time | Latitude | Longitude | Altitude | Speed | Heading |
|---|---|---|---|---|---|
| 2026-05-05 07:53 | 47.46037 | 8.55617 | 1392 ft | 0 kts | 6° |
| 2026-05-05 08:13 | 47.46025 | 8.55616 | 1392 ft | 2 kts | 6° |
| 2026-05-05 08:13 | 47.46015 | 8.55614 | 1392 ft | 2 kts | 6° |
| 2026-05-05 08:13 | 47.46001 | 8.55614 | 1392 ft | 2 kts | 348° |
| 2026-05-05 08:13 | 47.45986 | 8.55621 | 1392 ft | 2 kts | 334° |
| 2026-05-05 08:14 | 47.45974 | 8.55632 | 1392 ft | 2 kts | 319° |
| 2026-05-05 08:14 | 47.45963 | 8.55648 | 1392 ft | 2 kts | 305° |
| 2026-05-05 08:14 | 47.45956 | 8.55667 | 1392 ft | 2 kts | 290° |
| 2026-05-05 08:14 | 47.45952 | 8.55686 | 1392 ft | 0 kts | 277° |
| 2026-05-05 08:15 | 47.45952 | 8.55693 | 1392 ft | 0 kts | 276° |
| 2026-05-05 08:17 | 47.45952 | 8.55692 | 1392 ft | 0 kts | 276° |
| 2026-05-05 08:17 | 47.45955 | 8.55641 | 1392 ft | 7 kts | 276° |
| 2026-05-05 08:17 | 47.45964 | 8.55505 | 1392 ft | 18 kts | 276° |
| 2026-05-05 08:18 | 47.45978 | 8.55307 | 1392 ft | 19 kts | 276° |
| 2026-05-05 08:18 | 47.45990 | 8.55141 | 1392 ft | 14 kts | 276° |
| 2026-05-05 08:18 | 47.45999 | 8.55014 | 1392 ft | 10 kts | 280° |
| 2026-05-05 08:18 | 47.46049 | 8.54919 | 1390 ft | 13 kts | 334° |
| 2026-05-05 08:19 | 47.46137 | 8.54856 | 1389 ft | 14 kts | 334° |
| 2026-05-05 08:19 | 47.46230 | 8.54792 | 1389 ft | 14 kts | 336° |
| 2026-05-05 08:19 | 47.46321 | 8.54731 | 1390 ft | 14 kts | 336° |
| 2026-05-05 08:19 | 47.46410 | 8.54671 | 1390 ft | 14 kts | 335° |
| 2026-05-05 08:20 | 47.46503 | 8.54607 | 1389 ft | 15 kts | 335° |
| 2026-05-05 08:20 | 47.46599 | 8.54541 | 1389 ft | 15 kts | 335° |
| 2026-05-05 08:20 | 47.46695 | 8.54475 | 1389 ft | 15 kts | 336° |
| 2026-05-05 08:20 | 47.46796 | 8.54414 | 1389 ft | 15 kts | 339° |
| 2026-05-05 08:21 | 47.46900 | 8.54349 | 1389 ft | 16 kts | 335° |
| 2026-05-05 08:21 | 47.47007 | 8.54274 | 1389 ft | 17 kts | 335° |
| 2026-05-05 08:21 | 47.47121 | 8.54194 | 1389 ft | 18 kts | 335° |
| 2026-05-05 08:21 | 47.47238 | 8.54112 | 1389 ft | 18 kts | 335° |
| 2026-05-05 08:22 | 47.47356 | 8.54032 | 1389 ft | 18 kts | 337° |
| 2026-05-05 08:22 | 47.47474 | 8.53953 | 1391 ft | 18 kts | 335° |
| 2026-05-05 08:22 | 47.47578 | 8.53860 | 1393 ft | 17 kts | 309° |
| 2026-05-05 08:22 | 47.47590 | 8.53709 | 1395 ft | 15 kts | 251° |
| 2026-05-05 08:23 | 47.47541 | 8.53618 | 1395 ft | 8 kts | 186° |
| 2026-05-05 08:23 | 47.47479 | 8.53657 | 1395 ft | 10 kts | 155° |
| 2026-05-05 08:23 | 47.47348 | 8.53749 | 1391 ft | 45 kts | 155° |
| 2026-05-05 08:23 | 47.46871 | 8.54079 | 1389 ft | 104 kts | 156° |
| 2026-05-05 08:24 | 47.46055 | 8.54642 | 1390 ft | 153 kts | 155° |
| 2026-05-05 08:24 | 47.44972 | 8.55393 | 1457 ft | 187 kts | 155° |
| 2026-05-05 08:24 | 47.43801 | 8.56244 | 1946 ft | 189 kts | 154° |
| 2026-05-05 08:24 | 47.42618 | 8.57085 | 2489 ft | 193 kts | 155° |
| 2026-05-05 08:25 | 47.41356 | 8.57843 | 3044 ft | 198 kts | 167° |
| 2026-05-05 08:25 | 47.40004 | 8.58001 | 3549 ft | 199 kts | 186° |
| 2026-05-05 08:25 | 47.38703 | 8.57253 | 3868 ft | 211 kts | 226° |
| 2026-05-05 08:25 | 47.38039 | 8.55309 | 4141 ft | 226 kts | 264° |
| 2026-05-05 08:26 | 47.37941 | 8.52919 | 4440 ft | 241 kts | 266° |
| 2026-05-05 08:26 | 47.37764 | 8.50379 | 4739 ft | 257 kts | 261° |
| 2026-05-05 08:26 | 47.37417 | 8.47726 | 5086 ft | 271 kts | 257° |
| 2026-05-05 08:26 | 47.36946 | 8.45037 | 5657 ft | 275 kts | 254° |
| 2026-05-05 08:27 | 47.36406 | 8.42330 | 6287 ft | 278 kts | 252° |
| 2026-05-05 08:27 | 47.35822 | 8.39594 | 6905 ft | 280 kts | 251° |
| 2026-05-05 08:27 | 47.35222 | 8.36886 | 7533 ft | 282 kts | 251° |
| 2026-05-05 08:27 | 47.34604 | 8.34145 | 8177 ft | 284 kts | 250° |
| 2026-05-05 08:28 | 47.33974 | 8.31379 | 8820 ft | 285 kts | 250° |
| 2026-05-05 08:28 | 47.33342 | 8.28622 | 9481 ft | 286 kts | 249° |
| 2026-05-05 08:28 | 47.32715 | 8.25882 | 10100 ft | 288 kts | 249° |
| 2026-05-05 08:28 | 47.32058 | 8.23040 | 10439 ft | 300 kts | 249° |
| 2026-05-05 08:29 | 47.31367 | 8.20055 | 10740 ft | 315 kts | 249° |
| 2026-05-05 08:29 | 47.30648 | 8.16950 | 11166 ft | 323 kts | 250° |
| 2026-05-05 08:29 | 47.29932 | 8.13852 | 11789 ft | 325 kts | 250° |
| 2026-05-05 08:30 | 47.28476 | 8.07562 | 13073 ft | 327 kts | 250° |
| 2026-05-05 08:30 | 47.27749 | 8.04432 | 13688 ft | 329 kts | 250° |
| 2026-05-05 08:30 | 47.27213 | 8.01133 | 14283 ft | 334 kts | 261° |
| 2026-05-05 08:30 | 47.27139 | 7.97688 | 14836 ft | 339 kts | 272° |
| 2026-05-05 08:31 | 47.27415 | 7.94279 | 15392 ft | 343 kts | 276° |
| 2026-05-05 08:31 | 47.27766 | 7.90750 | 15957 ft | 347 kts | 276° |
| 2026-05-05 08:31 | 47.28121 | 7.87233 | 16470 ft | 351 kts | 276° |
| 2026-05-05 08:31 | 47.28470 | 7.83701 | 16993 ft | 355 kts | 276° |
| 2026-05-05 08:32 | 47.28818 | 7.80107 | 17536 ft | 358 kts | 276° |
| 2026-05-05 08:32 | 47.29169 | 7.76439 | 18077 ft | 361 kts | 276° |
| 2026-05-05 08:32 | 47.29515 | 7.72787 | 18596 ft | 365 kts | 275° |
| 2026-05-05 08:32 | 47.29864 | 7.69093 | 19132 ft | 368 kts | 276° |
| 2026-05-05 08:33 | 47.30253 | 7.65372 | 19627 ft | 372 kts | 278° |
| 2026-05-05 08:33 | 47.30801 | 7.61628 | 20122 ft | 376 kts | 282° |
| 2026-05-05 08:33 | 47.31523 | 7.57919 | 20624 ft | 380 kts | 285° |
| 2026-05-05 08:33 | 47.32323 | 7.54216 | 21083 ft | 384 kts | 285° |
| 2026-05-05 08:34 | 47.33149 | 7.50442 | 21551 ft | 388 kts | 285° |
| 2026-05-05 08:34 | 47.33967 | 7.46700 | 21991 ft | 391 kts | 285° |
| 2026-05-05 08:34 | 47.34804 | 7.42854 | 22451 ft | 393 kts | 285° |
| 2026-05-05 08:34 | 47.35637 | 7.39016 | 22860 ft | 397 kts | 285° |
| 2026-05-05 08:35 | 47.36476 | 7.35142 | 23292 ft | 400 kts | 285° |
| 2026-05-05 08:35 | 47.37317 | 7.31243 | 23720 ft | 402 kts | 284° |
| 2026-05-05 08:35 | 47.38168 | 7.27293 | 24140 ft | 405 kts | 284° |
| 2026-05-05 08:35 | 47.39012 | 7.23363 | 24534 ft | 408 kts | 284° |
| 2026-05-05 08:36 | 47.39866 | 7.19376 | 24930 ft | 411 kts | 284° |
| 2026-05-05 08:36 | 47.40690 | 7.15293 | 25292 ft | 413 kts | 281° |
| 2026-05-05 08:36 | 47.41349 | 7.11200 | 25691 ft | 414 kts | 278° |
| 2026-05-05 08:36 | 47.41964 | 7.07054 | 26080 ft | 417 kts | 278° |
| 2026-05-05 08:37 | 47.42575 | 7.02866 | 26435 ft | 420 kts | 278° |
| 2026-05-05 08:37 | 47.43187 | 6.98669 | 26772 ft | 423 kts | 278° |
| 2026-05-05 08:37 | 47.43807 | 6.94403 | 27107 ft | 426 kts | 278° |
| 2026-05-05 08:37 | 47.44423 | 6.90168 | 27444 ft | 429 kts | 277° |
| 2026-05-05 08:38 | 47.45053 | 6.85844 | 27784 ft | 431 kts | 278° |
| 2026-05-05 08:38 | 47.45679 | 6.81523 | 28107 ft | 433 kts | 278° |
| 2026-05-05 08:38 | 47.46308 | 6.77179 | 28450 ft | 435 kts | 277° |
| 2026-05-05 08:38 | 47.46941 | 6.72784 | 28780 ft | 438 kts | 277° |
| 2026-05-05 08:39 | 47.47564 | 6.68394 | 29070 ft | 440 kts | 276° |
| 2026-05-05 08:39 | 47.48057 | 6.63974 | 29377 ft | 440 kts | 273° |
| 2026-05-05 08:39 | 47.48411 | 6.59505 | 29647 ft | 442 kts | 271° |
| 2026-05-05 08:39 | 47.48737 | 6.54973 | 29926 ft | 444 kts | 271° |
| 2026-05-05 08:40 | 47.49058 | 6.50424 | 30216 ft | 447 kts | 271° |
| 2026-05-05 08:40 | 47.49378 | 6.45870 | 30469 ft | 449 kts | 271° |
| 2026-05-05 08:40 | 47.49704 | 6.41258 | 30732 ft | 452 kts | 271° |
| 2026-05-05 08:40 | 47.50028 | 6.36647 | 31010 ft | 454 kts | 271° |
| 2026-05-05 08:41 | 47.50352 | 6.32043 | 31319 ft | 454 kts | 270° |
| 2026-05-05 08:41 | 47.50677 | 6.27373 | 31586 ft | 456 kts | 270° |
| 2026-05-05 08:41 | 47.51000 | 6.22725 | 31854 ft | 457 kts | 270° |
| 2026-05-05 08:41 | 47.51320 | 6.18114 | 32127 ft | 458 kts | 270° |
| 2026-05-05 08:42 | 47.51641 | 6.13427 | 32367 ft | 460 kts | 270° |
| 2026-05-05 08:42 | 47.51964 | 6.08702 | 32612 ft | 461 kts | 270° |
| 2026-05-05 08:42 | 47.52282 | 6.03999 | 32863 ft | 462 kts | 270° |
| 2026-05-05 08:42 | 47.52610 | 5.99287 | 33091 ft | 465 kts | 272° |
| 2026-05-05 08:43 | 47.53161 | 5.94603 | 33311 ft | 470 kts | 278° |
| 2026-05-05 08:43 | 47.54052 | 5.89938 | 33583 ft | 475 kts | 284° |
| 2026-05-05 08:43 | 47.55289 | 5.85355 | 33832 ft | 479 kts | 290° |
| 2026-05-05 08:44 | 47.58680 | 5.76939 | 33868 ft | 484 kts | 303° |
| 2026-05-05 08:44 | 47.63121 | 5.69407 | 33879 ft | 487 kts | 309° |
| 2026-05-05 08:45 | 47.67756 | 5.62056 | 33871 ft | 487 kts | 309° |
| 2026-05-05 08:45 | 47.72329 | 5.54724 | 33874 ft | 487 kts | 309° |
| 2026-05-05 08:46 | 47.76917 | 5.47291 | 33868 ft | 488 kts | 309° |
| 2026-05-05 08:46 | 47.81487 | 5.39856 | 33874 ft | 489 kts | 309° |
| 2026-05-05 08:47 | 47.86066 | 5.32387 | 33874 ft | 489 kts | 308° |
| 2026-05-05 08:47 | 47.90633 | 5.24915 | 33875 ft | 489 kts | 308° |
| 2026-05-05 08:48 | 47.95183 | 5.17445 | 33876 ft | 487 kts | 308° |
| 2026-05-05 08:48 | 47.99721 | 5.09963 | 33878 ft | 488 kts | 308° |
| 2026-05-05 08:49 | 48.04255 | 5.02465 | 33871 ft | 490 kts | 308° |
| 2026-05-05 08:49 | 48.08796 | 4.94940 | 33867 ft | 490 kts | 308° |
| 2026-05-05 08:50 | 48.13347 | 4.87378 | 33864 ft | 490 kts | 308° |
| 2026-05-05 08:50 | 48.17881 | 4.79817 | 33865 ft | 489 kts | 308° |
| 2026-05-05 08:51 | 48.22393 | 4.72272 | 33864 ft | 489 kts | 308° |
| 2026-05-05 08:51 | 48.26932 | 4.64663 | 33862 ft | 489 kts | 308° |
| 2026-05-05 08:52 | 48.31452 | 4.57063 | 33861 ft | 489 kts | 308° |
| 2026-05-05 08:52 | 48.35949 | 4.49479 | 33862 ft | 489 kts | 308° |
| 2026-05-05 08:53 | 48.40458 | 4.41857 | 33860 ft | 488 kts | 308° |
| 2026-05-05 08:53 | 48.44957 | 4.34225 | 33856 ft | 489 kts | 307° |
| 2026-05-05 08:54 | 48.49440 | 4.26599 | 33850 ft | 488 kts | 307° |
| 2026-05-05 08:54 | 48.53905 | 4.18981 | 33848 ft | 488 kts | 307° |
| 2026-05-05 08:55 | 48.58397 | 4.11296 | 33849 ft | 488 kts | 307° |
| 2026-05-05 08:55 | 48.62849 | 4.03656 | 33849 ft | 488 kts | 307° |
| 2026-05-05 08:56 | 48.67319 | 3.95959 | 33848 ft | 488 kts | 307° |
| 2026-05-05 08:56 | 48.71963 | 3.88531 | 33846 ft | 491 kts | 313° |
| 2026-05-05 08:57 | 48.77211 | 3.81834 | 33849 ft | 494 kts | 320° |
| 2026-05-05 08:57 | 48.82760 | 3.75747 | 33850 ft | 495 kts | 321° |
| 2026-05-05 08:58 | 48.88338 | 3.69696 | 33852 ft | 495 kts | 321° |
| 2026-05-05 08:58 | 48.93886 | 3.63627 | 33854 ft | 495 kts | 321° |
| 2026-05-05 08:59 | 48.99461 | 3.57492 | 33851 ft | 495 kts | 321° |
| 2026-05-05 08:59 | 49.05009 | 3.51368 | 33849 ft | 494 kts | 321° |
| 2026-05-05 09:00 | 49.10552 | 3.45231 | 33841 ft | 493 kts | 321° |
| 2026-05-05 09:00 | 49.16058 | 3.39117 | 33838 ft | 492 kts | 321° |
| 2026-05-05 09:01 | 49.21563 | 3.32984 | 33839 ft | 491 kts | 320° |
| 2026-05-05 09:01 | 49.27094 | 3.26809 | 33844 ft | 491 kts | 320° |
| 2026-05-05 09:02 | 49.32589 | 3.20647 | 33848 ft | 490 kts | 320° |
| 2026-05-05 09:02 | 49.38077 | 3.14487 | 33851 ft | 491 kts | 320° |
| 2026-05-05 09:03 | 49.43535 | 3.08344 | 33867 ft | 489 kts | 320° |
| 2026-05-05 09:03 | 49.49027 | 3.02137 | 33871 ft | 490 kts | 320° |
| 2026-05-05 09:04 | 49.54490 | 2.95949 | 33876 ft | 489 kts | 320° |
| 2026-05-05 09:04 | 49.59805 | 2.89910 | 33876 ft | 489 kts | 320° |
| 2026-05-05 09:05 | 49.65217 | 2.83747 | 33881 ft | 488 kts | 320° |
| 2026-05-05 09:05 | 49.70664 | 2.77524 | 33882 ft | 487 kts | 320° |
| 2026-05-05 09:06 | 49.76081 | 2.71317 | 33884 ft | 486 kts | 320° |
| 2026-05-05 09:06 | 49.81528 | 2.65177 | 33887 ft | 487 kts | 321° |
| 2026-05-05 09:07 | 49.87025 | 2.59103 | 33885 ft | 486 kts | 321° |
| 2026-05-05 09:07 | 49.92513 | 2.53016 | 33882 ft | 486 kts | 321° |
| 2026-05-05 09:08 | 49.97972 | 2.46932 | 33885 ft | 485 kts | 321° |
| 2026-05-05 09:08 | 50.03430 | 2.40821 | 33884 ft | 484 kts | 321° |
| 2026-05-05 09:09 | 50.08841 | 2.34747 | 33883 ft | 483 kts | 321° |
| 2026-05-05 09:09 | 50.14280 | 2.28626 | 33891 ft | 481 kts | 321° |
| 2026-05-05 09:10 | 50.19685 | 2.22527 | 33892 ft | 480 kts | 321° |
| 2026-05-05 09:10 | 50.25069 | 2.16426 | 33895 ft | 479 kts | 321° |
| 2026-05-05 09:11 | 50.30449 | 2.10323 | 33901 ft | 479 kts | 321° |
| 2026-05-05 09:11 | 50.35815 | 2.04204 | 33906 ft | 478 kts | 320° |
| 2026-05-05 09:12 | 50.40913 | 1.97648 | 33905 ft | 476 kts | 316° |
| 2026-05-05 09:12 | 50.45889 | 1.90840 | 33910 ft | 475 kts | 316° |
| 2026-05-05 09:13 | 50.50840 | 1.84054 | 33917 ft | 474 kts | 316° |
| 2026-05-05 09:13 | 50.55751 | 1.77320 | 33924 ft | 472 kts | 316° |
| 2026-05-05 09:14 | 50.60706 | 1.70513 | 33931 ft | 471 kts | 316° |
| 2026-05-05 09:14 | 50.65591 | 1.63782 | 33931 ft | 470 kts | 316° |
| 2026-05-05 09:15 | 50.70490 | 1.57008 | 33937 ft | 469 kts | 316° |
| 2026-05-05 09:15 | 50.75375 | 1.50229 | 33938 ft | 469 kts | 316° |
| 2026-05-05 09:16 | 50.80277 | 1.43411 | 34040 ft | 475 kts | 316° |
| 2026-05-05 09:16 | 50.82745 | 1.39974 | 34240 ft | 476 kts | 316° |
| 2026-05-05 09:16 | 50.85250 | 1.36483 | 34452 ft | 477 kts | 316° |
| 2026-05-05 09:16 | 50.87735 | 1.33014 | 34654 ft | 479 kts | 315° |
| 2026-05-05 09:17 | 50.90229 | 1.29526 | 34918 ft | 478 kts | 315° |
| 2026-05-05 09:17 | 50.92705 | 1.26058 | 35147 ft | 477 kts | 316° |
| 2026-05-05 09:17 | 50.95158 | 1.22612 | 35334 ft | 476 kts | 316° |
| 2026-05-05 09:17 | 50.97626 | 1.19139 | 35494 ft | 476 kts | 316° |
| 2026-05-05 09:18 | 51.00076 | 1.15592 | 35646 ft | 474 kts | 313° |
| 2026-05-05 09:18 | 51.02327 | 1.11851 | 35786 ft | 473 kts | 309° |
| 2026-05-05 09:18 | 51.04411 | 1.07813 | 35899 ft | 471 kts | 304° |
| 2026-05-05 09:19 | 51.07940 | 0.99121 | 35946 ft | 467 kts | 296° |
| 2026-05-05 09:19 | 51.10593 | 0.89834 | 35951 ft | 465 kts | 289° |
| 2026-05-05 09:20 | 51.12887 | 0.80437 | 35952 ft | 465 kts | 289° |
| 2026-05-05 09:20 | 51.15222 | 0.70793 | 35951 ft | 465 kts | 289° |
| 2026-05-05 09:21 | 51.17524 | 0.61296 | 35954 ft | 465 kts | 289° |
| 2026-05-05 09:21 | 51.19850 | 0.51680 | 35954 ft | 465 kts | 289° |
| 2026-05-05 09:22 | 51.22154 | 0.42112 | 35955 ft | 465 kts | 290° |
| 2026-05-05 09:22 | 51.24534 | 0.32202 | 35954 ft | 465 kts | 289° |
| 2026-05-05 09:23 | 51.26819 | 0.22636 | 35959 ft | 465 kts | 289° |
| 2026-05-05 09:23 | 51.29118 | 0.12977 | 36229 ft | 465 kts | 289° |
| 2026-05-05 09:23 | 51.30260 | 0.08160 | 36101 ft | 463 kts | 289° |
| 2026-05-05 09:24 | 51.31383 | 0.03415 | 36036 ft | 463 kts | 289° |
| 2026-05-05 09:24 | 51.33650 | -0.06201 | 35990 ft | 463 kts | 289° |
| 2026-05-05 09:25 | 51.35898 | -0.15779 | 35979 ft | 464 kts | 289° |
| 2026-05-05 09:25 | 51.38157 | -0.25439 | 35975 ft | 464 kts | 289° |
| 2026-05-05 09:26 | 51.40402 | -0.35098 | 35974 ft | 464 kts | 289° |
| 2026-05-05 09:26 | 51.42643 | -0.44774 | 35979 ft | 464 kts | 289° |
| 2026-05-05 09:27 | 51.44868 | -0.54422 | 35980 ft | 464 kts | 289° |
| 2026-05-05 09:27 | 51.47083 | -0.64077 | 35981 ft | 464 kts | 289° |
| 2026-05-05 09:28 | 51.49307 | -0.73811 | 35983 ft | 464 kts | 288° |
| 2026-05-05 09:28 | 51.51509 | -0.83494 | 35979 ft | 464 kts | 288° |
| 2026-05-05 09:29 | 51.53706 | -0.93200 | 35985 ft | 464 kts | 288° |
| 2026-05-05 09:29 | 51.55893 | -1.02907 | 35980 ft | 465 kts | 288° |
| 2026-05-05 09:30 | 51.58074 | -1.12629 | 35984 ft | 465 kts | 289° |
| 2026-05-05 09:30 | 51.60257 | -1.22414 | 35996 ft | 466 kts | 289° |